Cobre, Nevada
Current Conditions -  °F | °C
As of 9:15 PM on Wednesday 22 Oct 2014 (Local Time) from KENV Reporting Station
Clear Clear  
Wind Chill: 48°   Ceiling: Unl
Heat Index: 48°   Visibility: 10mi
Dew Point: 30°   Wind: 0mph
Humidity: 50%   Direction: NA
Pressure: 30.16"   Gusts: NA
Location:  41.0114°N, 114.57°W
Report Text: KENV 230415Z AUTO 00000KT 10SM CLR 09/M01 A3016 RMK AO1
Loading
Personal Weather Stations






























Interactive Weather Map
Tropical Storm Tracking
New forecast layout! Learn more

10-Day Weather Forecast

Advertisements
Track Severe Weather on mobile